Time;durP1;ratioP1;P1;durP2;ratioP2;P2;SDS_P1;SDS_P2;PMS_P1;PMS_P2;Temp;Humidity;BMP_temperature;BMP_pressure;BME280_temperature;BME280_humidity;BME280_pressure;Samples;Min_cycle;Max_cycle;Signal;HPM_P1;HPM_P2
2023/10/23 00:00:53;;;;;;;8.90;2.17;;;10.00;99.90;;;9.21;100.00;100291.75;4170059;28;20493;-72
2023/10/23 00:02:54;;;;;;;4.50;1.67;;;9.90;99.90;;;9.20;100.00;100290.09;4169900;28;20026;-72
2023/10/23 00:04:55;;;;;;;4.18;1.58;;;9.90;99.90;;;9.17;100.00;100279.88;4169755;28;20493;-72
2023/10/23 00:06:56;;;;;;;3.88;1.10;;;9.90;99.90;;;9.18;100.00;100278.91;4152378;28;20497;-72
2023/10/23 00:08:57;;;;;;;9.57;1.98;;;9.90;99.90;;;9.18;100.00;100280.69;4169823;28;20030;-72
2023/10/23 00:10:58;;;;;;;6.57;2.33;;;9.90;99.90;;;9.16;100.00;100283.50;4169523;28;20083;-72
2023/10/23 00:12:59;;;;;;;3.10;1.52;;;9.90;99.90;;;9.16;100.00;100285.31;4151941;28;20037;-72
2023/10/23 00:15:00;;;;;;;3.33;1.50;;;9.90;99.90;;;9.15;100.00;100281.03;4169847;28;20034;-72
2023/10/23 00:17:01;;;;;;;5.07;1.35;;;9.90;99.90;;;9.13;100.00;100281.19;4169725;28;20030;-72
2023/10/23 00:19:01;;;;;;;6.00;1.73;;;9.90;99.90;;;9.14;100.00;100282.81;4152152;28;20014;-72
2023/10/23 00:21:02;;;;;;;4.00;1.50;;;9.90;99.90;;;9.10;100.00;100278.88;4154849;28;20034;-72
2023/10/23 00:23:03;;;;;;;5.25;1.67;;;9.90;99.90;;;9.12;100.00;100282.16;4131777;28;20041;-72
2023/10/23 00:25:04;;;;;;;3.40;1.25;;;9.90;99.90;;;9.09;100.00;100268.50;4152840;28;20030;-72
2023/10/23 00:27:05;;;;;;;6.03;2.05;;;9.80;99.90;;;9.09;100.00;100281.66;4136032;28;20509;-73
2023/10/23 00:29:06;;;;;;;8.50;1.30;;;9.80;99.90;;;9.09;100.00;100271.13;4153077;28;20044;-72
2023/10/23 00:31:07;;;;;;;6.53;1.25;;;9.80;99.90;;;9.08;100.00;100269.50;4153179;28;20555;-72
2023/10/23 00:33:08;;;;;;;3.88;1.48;;;9.80;99.90;;;9.08;100.00;100269.50;4153115;28;20029;-72
2023/10/23 00:35:09;;;;;;;4.28;1.55;;;9.80;99.90;;;9.06;100.00;100267.00;4153032;28;20030;-72
2023/10/23 00:37:10;;;;;;;5.82;1.63;;;9.80;99.90;;;9.06;100.00;100272.28;4135615;28;20026;-72
2023/10/23 00:39:11;;;;;;;10.48;1.42;;;9.80;99.90;;;9.05;100.00;100270.59;4135645;28;20393;-72
2023/10/23 00:41:12;;;;;;;3.85;1.48;;;9.80;99.90;;;9.04;100.00;100273.41;4152708;28;20034;-72
2023/10/23 00:43:23;;;;;;;5.82;1.40;;;9.80;99.90;;;9.03;100.00;100269.13;4135521;28;20029;-72
2023/10/23 00:45:24;;;;;;;6.38;1.48;;;9.80;99.90;;;8.99;100.00;100268.59;4135427;28;20030;-72
2023/10/23 00:47:26;;;;;;;6.28;1.73;;;9.80;99.90;;;9.02;100.00;100267.50;4135674;28;20125;-72
2023/10/23 00:49:27;;;;;;;9.02;1.67;;;9.80;99.90;;;9.00;100.00;100267.63;4135549;28;20056;-72
2023/10/23 00:51:28;;;;;;;2.88;1.30;;;9.70;99.90;;;8.97;100.00;100261.84;4135290;28;20050;-72
2023/10/23 00:53:33;;;;;;;7.10;1.77;;;9.70;99.90;;;8.99;100.00;100265.19;4136233;28;20113;-72
2023/10/23 00:55:34;;;;;;;3.45;1.40;;;9.70;99.90;;;8.97;100.00;100262.69;4164041;28;20473;-72
2023/10/23 00:57:35;;;;;;;4.10;1.45;;;9.70;99.90;;;8.96;100.00;100260.22;4152744;28;20072;-72
2023/10/23 00:59:36;;;;;;;6.95;1.50;;;9.70;99.90;;;8.95;100.00;100253.31;4153837;28;20045;-72
2023/10/23 01:01:37;;;;;;;5.63;1.50;;;9.70;99.90;;;8.94;100.00;100251.66;4135226;28;20053;-72
2023/10/23 01:03:42;;;;;;;5.32;1.50;;;9.70;99.90;;;8.92;100.00;100249.19;4135285;28;20030;-72
2023/10/23 01:05:43;;;;;;;10.48;3.35;;;9.70;99.90;;;8.92;100.00;100240.47;4135270;28;20040;-72
2023/10/23 01:07:44;;;;;;;8.93;1.50;;;9.70;99.90;;;8.92;100.00;100237.84;4159970;28;20049;-72
2023/10/23 01:09:45;;;;;;;3.83;1.30;;;9.70;99.90;;;8.90;100.00;100225.66;4136595;28;20022;-72
2023/10/23 01:11:46;;;;;;;9.43;2.63;;;9.70;99.90;;;8.88;100.00;100232.91;4134811;28;20054;-72
2023/10/23 01:13:47;;;;;;;7.28;1.60;;;9.70;99.90;;;8.87;100.00;100225.97;4135260;28;20402;-72
2023/10/23 01:15:47;;;;;;;6.78;1.65;;;9.70;99.90;;;8.87;100.00;100225.16;4152530;28;20037;-72
2023/10/23 01:17:49;;;;;;;4.85;1.83;;;9.60;99.90;;;8.86;100.00;100223.53;4152364;28;20501;-72
2023/10/23 01:19:50;;;;;;;7.63;1.52;;;9.70;99.90;;;8.87;100.00;100220.72;4147580;28;20030;-72
2023/10/23 01:21:51;;;;;;;3.38;1.58;;;9.60;99.90;;;8.83;100.00;100208.88;4168849;28;20075;-72
2023/10/23 01:23:53;;;;;;;3.47;1.52;;;9.60;99.90;;;8.84;100.00;100215.78;4168774;28;20412;-72
2023/10/23 01:25:54;;;;;;;4.32;1.40;;;9.60;99.90;;;8.82;100.00;100206.41;4150901;28;20026;-72
2023/10/23 01:27:55;;;;;;;2.90;1.52;;;9.60;99.90;;;8.84;100.00;100214.97;4151285;28;20109;-72
2023/10/23 01:29:56;;;;;;;7.30;1.70;;;9.60;99.90;;;8.86;100.00;100211.19;4168755;28;20025;-72
2023/10/23 01:31:57;;;;;;;5.65;1.85;;;9.60;99.90;;;8.86;100.00;100213.84;4168712;28;20504;-72
2023/10/23 01:33:58;;;;;;;4.20;1.60;;;9.60;99.90;;;8.87;100.00;100212.00;4168377;28;20025;-72
2023/10/23 01:35:58;;;;;;;5.20;1.60;;;9.70;99.90;;;8.87;100.00;100209.38;4151459;28;20018;-72
2023/10/23 01:37:59;;;;;;;9.57;1.77;;;9.70;99.90;;;8.84;100.00;100201.81;4168681;28;20044;-72
2023/10/23 01:40:00;;;;;;;8.35;1.73;;;9.70;99.90;;;8.87;100.00;100209.38;4150940;28;20025;-72
2023/10/23 01:42:01;;;;;;;7.82;1.60;;;9.70;99.90;;;8.89;100.00;100208.25;4151009;28;20100;-72
2023/10/23 01:44:02;;;;;;;2.90;1.70;;;9.70;99.90;;;8.88;100.00;100206.59;4168689;28;20040;-72
2023/10/23 01:46:03;;;;;;;3.70;1.40;;;9.70;99.90;;;8.89;100.00;100203.00;4168581;28;20029;-72
2023/10/23 01:48:05;;;;;;;4.57;1.90;;;9.70;99.90;;;8.90;100.00;100203.78;4150961;28;20080;-72
2023/10/23 01:50:06;;;;;;;4.40;1.65;;;9.70;99.90;;;8.88;100.00;100205.75;4168450;28;20136;-72
2023/10/23 01:52:07;;;;;;;11.73;2.28;;;9.70;99.90;;;8.87;100.00;100199.69;4150896;28;20046;-72
2023/10/23 01:54:08;;;;;;;3.78;1.80;;;9.70;99.90;;;8.88;100.00;100200.50;4168395;28;20085;-72
2023/10/23 01:56:09;;;;;;;6.88;1.55;;;9.70;99.90;;;8.89;100.00;100202.16;4141205;28;20023;-72
2023/10/23 01:58:10;;;;;;;6.63;2.15;;;9.70;99.90;;;8.89;100.00;100191.66;4152705;28;20026;-72
2023/10/23 02:00:11;;;;;;;4.15;1.33;;;9.70;99.90;;;8.87;100.00;100190.97;4160959;28;20029;-72
2023/10/23 02:02:12;;;;;;;4.57;1.83;;;9.70;99.90;;;8.89;100.00;100187.22;4134762;28;20022;-72
2023/10/23 02:04:13;;;;;;;9.80;1.88;;;9.70;99.90;;;8.90;100.00;100190.63;4152101;28;20088;-72
2023/10/23 02:06:13;;;;;;;5.35;1.75;;;9.70;99.90;;;8.88;100.00;100190.81;4134576;28;20023;-72
2023/10/23 02:08:16;;;;;;;9.55;1.92;;;9.70;99.90;;;8.87;100.00;100189.16;4152102;28;20088;-72
2023/10/23 02:10:17;;;;;;;4.70;1.55;;;9.60;99.90;;;8.86;100.00;100184.06;4151810;28;20100;-72
2023/10/23 02:12:18;;;;;;;2.70;1.50;;;9.70;99.90;;;8.85;100.00;100175.34;4151937;28;20046;-72
2023/10/23 02:14:19;;;;;;;7.78;1.77;;;9.70;99.90;;;8.86;100.00;100171.75;4134453;28;20031;-72
2023/10/23 02:16:19;;;;;;;8.45;1.50;;;9.60;99.90;;;8.86;100.00;100182.28;4151920;28;20033;-72
2023/10/23 02:18:20;;;;;;;4.47;1.48;;;9.60;99.90;;;8.86;100.00;100171.75;4135138;28;20018;-72
2023/10/23 02:20:22;;;;;;;5.63;1.75;;;9.70;99.90;;;8.88;100.00;100169.78;4159566;28;20034;-72
2023/10/23 02:22:23;;;;;;;4.05;1.42;;;9.70;99.90;;;8.89;100.00;100168.81;4151983;28;20061;-72
2023/10/23 02:24:23;;;;;;;3.20;1.20;;;9.70;99.90;;;8.89;100.00;100162.72;4151835;28;20501;-72
2023/10/23 02:26:29;;;;;;;7.32;2.13;;;9.70;99.90;;;8.89;100.00;100163.53;4151769;28;20026;-72
2023/10/23 02:28:30;;;;;;;9.63;2.42;;;9.70;99.90;;;8.88;100.00;100159.25;4151957;28;20101;-72
2023/10/23 02:30:31;;;;;;;7.50;1.60;;;9.70;99.90;;;8.89;100.00;100152.19;4134510;28;20030;-72
2023/10/23 02:32:31;;;;;;;5.35;1.45;;;9.70;99.90;;;8.89;100.00;100155.66;4151822;28;20100;-72
2023/10/23 02:34:33;;;;;;;8.23;1.70;;;9.70;99.90;;;8.86;100.00;100150.72;4151848;28;20045;-72
2023/10/23 02:36:34;;;;;;;4.38;1.80;;;9.70;99.90;;;8.91;100.00;100147.59;4151726;28;20033;-72
2023/10/23 02:38:35;;;;;;;5.88;2.17;;;9.70;99.90;;;8.94;100.00;100149.91;4151859;28;20408;-72
2023/10/23 02:40:35;;;;;;;9.10;1.75;;;9.70;99.90;;;8.93;100.00;100144.81;4160341;28;20026;-72
2023/10/23 02:42:36;;;;;;;10.27;2.08;;;9.80;99.90;;;8.97;100.00;100140.84;4152120;28;20025;-72
2023/10/23 02:44:37;;;;;;;8.23;2.85;;;9.70;99.90;;;8.98;100.00;100138.09;4151833;28;20041;-72
2023/10/23 02:46:38;;;;;;;11.85;2.38;;;9.80;99.90;;;8.98;100.00;100135.44;4135636;28;20557;-72
2023/10/23 02:48:39;;;;;;;4.40;1.70;;;9.80;99.90;;;9.01;100.00;100140.41;4137376;28;20462;-72
2023/10/23 02:50:40;;;;;;;7.32;1.90;;;9.80;99.90;;;9.01;100.00;100134.31;4154795;28;20022;-72
2023/10/23 02:52:40;;;;;;;8.90;1.60;;;9.80;99.90;;;9.03;100.00;100134.97;4154655;28;20034;-72
2023/10/23 02:54:41;;;;;;;6.35;1.98;;;9.80;99.90;;;9.05;100.00;100130.38;4154480;28;20026;-72
2023/10/23 02:56:42;;;;;;;4.93;2.20;;;9.80;99.90;;;9.09;100.00;100126.41;4167173;28;20029;-72
2023/10/23 02:58:43;;;;;;;6.63;1.67;;;9.80;99.90;;;9.09;100.00;100129.88;4166613;28;20030;-72
2023/10/23 03:00:44;;;;;;;9.82;2.67;;;9.80;99.90;;;9.10;100.00;100128.91;4137206;28;20084;-72
2023/10/23 03:02:45;;;;;;;10.90;2.25;;;9.90;99.90;;;9.12;100.00;100131.34;4137068;28;20022;-72
2023/10/23 03:04:46;;;;;;;4.07;1.45;;;9.90;99.90;;;9.12;100.00;100126.09;4136980;28;20129;-72
2023/10/23 03:06:47;;;;;;;6.57;1.90;;;9.90;99.90;;;9.12;100.00;100126.09;4137108;28;20058;-72
2023/10/23 03:08:48;;;;;;;8.82;2.38;;;9.90;99.90;;;9.15;100.00;100123.16;4154416;28;20037;-72
2023/10/23 03:10:49;;;;;;;5.80;2.00;;;9.90;99.90;;;9.15;100.00;100123.97;4154228;28;20433;-72
2023/10/23 03:12:50;;;;;;;8.57;2.17;;;9.90;99.90;;;9.15;100.00;100120.50;4154038;28;20104;-72
2023/10/23 03:14:51;;;;;;;12.57;3.45;;;9.90;99.90;;;9.18;100.00;100125.44;4154363;28;20033;-72
2023/10/23 03:16:52;;;;;;;5.68;1.83;;;9.90;99.90;;;9.15;100.00;100118.72;4154358;28;20030;-72
2023/10/23 03:18:54;;;;;;;6.80;2.30;;;9.90;99.90;;;9.15;100.00;100117.88;4159169;28;20041;-72
2023/10/23 03:20:59;;;;;;;9.63;2.85;;;9.90;99.90;;;9.17;100.00;100115.94;4156797;28;20018;-72
2023/10/23 03:23:00;;;;;;;3.70;1.60;;;9.90;99.90;;;9.18;100.00;100117.56;4154334;28;20076;-72
2023/10/23 03:25:01;;;;;;;8.50;1.63;;;9.90;99.90;;;9.15;100.00;100112.63;4162442;28;20026;-72
2023/10/23 03:27:02;;;;;;;3.83;1.63;;;10.00;99.90;;;9.19;100.00;100113.94;4136730;28;20601;-72
2023/10/23 03:29:03;;;;;;;5.57;2.08;;;10.00;99.90;;;9.21;100.00;100110.16;4136648;28;20077;-72
2023/10/23 03:31:04;;;;;;;9.40;1.92;;;10.00;99.90;;;9.24;100.00;100107.22;4154146;28;20478;-72
2023/10/23 03:33:05;;;;;;;9.43;2.03;;;10.00;99.90;;;9.25;100.00;100113.31;4136745;28;20023;-72
2023/10/23 03:35:06;;;;;;;5.95;2.92;;;10.00;99.90;;;9.27;100.00;100106.88;4153965;28;20030;-72
2023/10/23 03:37:07;;;;;;;7.65;1.88;;;10.00;99.90;;;9.29;100.00;100104.91;4154080;28;20057;-72
2023/10/23 03:39:08;;;;;;;5.32;1.70;;;10.10;99.90;;;9.30;100.00;100101.28;4153779;28;20026;-72
2023/10/23 03:41:09;;;;;;;7.35;2.05;;;10.10;99.90;;;9.33;100.00;100105.41;4153656;28;20041;-72
2023/10/23 03:43:10;;;;;;;6.30;1.48;;;10.10;99.90;;;9.35;100.00;100104.25;4154008;28;20022;-72
2023/10/23 03:45:11;;;;;;;3.95;1.70;;;10.10;99.90;;;9.37;100.00;100101.47;4153836;28;20021;-72
2023/10/23 03:47:12;;;;;;;4.03;1.38;;;10.10;99.90;;;9.37;100.00;100104.94;4153845;28;20034;-72
2023/10/23 03:49:12;;;;;;;9.13;2.28;;;10.20;99.90;;;9.38;100.00;100103.09;4153845;28;20041;-72
2023/10/23 03:51:13;;;;;;;5.30;1.73;;;10.20;99.90;;;9.39;100.00;100104.75;4153902;28;20389;-72
2023/10/23 03:53:14;;;;;;;4.53;1.88;;;10.20;99.90;;;9.39;100.00;100096.84;4153742;28;20036;-72
2023/10/23 03:55:15;;;;;;;7.95;2.20;;;10.20;99.90;;;9.40;100.00;100098.50;4166481;28;20036;-72
2023/10/23 03:57:16;;;;;;;6.82;1.77;;;10.20;99.90;;;9.40;100.00;100098.50;4153155;28;20436;-72
2023/10/23 03:59:17;;;;;;;8.82;2.17;;;10.20;99.90;;;9.38;100.00;100093.41;4154047;28;20037;-72
2023/10/23 04:01:18;;;;;;;5.00;2.22;;;10.20;99.90;;;9.38;100.00;100095.19;4153328;28;20018;-72
2023/10/23 04:03:19;;;;;;;5.78;2.03;;;10.10;99.90;;;9.38;100.00;100092.56;4153364;28;20101;-72
2023/10/23 04:05:20;;;;;;;7.10;1.92;;;10.20;99.90;;;9.39;100.00;100099.50;4153565;28;20053;-72
2023/10/23 04:07:21;;;;;;;4.70;1.95;;;10.10;99.90;;;9.36;100.00;100095.38;4154964;28;20066;-72
2023/10/23 04:09:22;;;;;;;5.55;1.80;;;10.10;99.90;;;9.35;100.00;100091.09;4153639;28;20025;-72
2023/10/23 04:11:23;;;;;;;6.50;1.80;;;10.10;99.90;;;9.35;100.00;100093.72;4152831;28;20113;-72
2023/10/23 04:13:25;;;;;;;9.07;2.05;;;10.10;99.90;;;9.31;100.00;100088.97;4157932;28;20033;-72
2023/10/23 04:15:26;;;;;;;9.10;2.00;;;10.10;99.90;;;9.28;100.00;100078.78;4152301;28;20030;-72
2023/10/23 04:17:27;;;;;;;5.72;1.65;;;10.10;99.90;;;9.29;100.00;100083.03;4151457;28;20026;-72
2023/10/23 04:19:28;;;;;;;4.97;1.60;;;10.10;99.90;;;9.27;100.00;100085.00;4167393;28;20032;-72
2023/10/23 04:21:29;;;;;;;7.88;2.17;;;10.10;99.90;;;9.26;100.00;100083.34;4165130;28;20014;-72
2023/10/23 04:23:31;;;;;;;6.93;1.90;;;10.10;99.90;;;9.23;100.00;100078.41;4160194;28;20083;-72
2023/10/23 04:25:32;;;;;;;3.90;1.60;;;10.00;99.90;;;9.20;100.00;100073.50;4158288;28;20593;-72
2023/10/23 04:27:32;;;;;;;5.68;1.92;;;10.00;99.90;;;9.18;100.00;100076.28;4153086;28;20045;-72
2023/10/23 04:29:33;;;;;;;6.25;2.50;;;10.00;99.90;;;9.15;100.00;100073.16;4153216;28;20030;-72
2023/10/23 04:31:34;;;;;;;7.75;2.13;;;9.90;99.90;;;9.15;100.00;100070.53;4153282;28;20033;-72
2023/10/23 04:33:35;;;;;;;8.90;1.55;;;9.90;99.90;;;9.14;100.00;100068.91;4135729;28;20026;-72
2023/10/23 04:35:36;;;;;;;4.22;1.60;;;9.90;99.90;;;9.11;100.00;100066.59;4152892;28;20053;-72
2023/10/23 04:37:36;;;;;;;6.13;2.85;;;9.90;99.90;;;9.10;100.00;100063.13;4153118;28;20041;-72
2023/10/23 04:39:37;;;;;;;3.72;1.75;;;9.90;99.90;;;9.08;100.00;100064.28;4152916;28;20041;-72
2023/10/23 04:41:38;;;;;;;6.03;1.92;;;9.90;99.90;;;9.10;100.00;100064.94;4135357;28;20034;-72
2023/10/23 04:43:39;;;;;;;6.32;1.65;;;9.90;99.90;;;9.08;100.00;100061.66;4152946;28;20025;-72
2023/10/23 04:45:40;;;;;;;4.53;2.00;;;9.90;99.90;;;9.07;100.00;100057.38;4153005;28;20057;-72
2023/10/23 04:47:41;;;;;;;7.43;1.70;;;9.90;99.90;;;9.07;100.00;100055.56;4135512;28;20030;-72
2023/10/23 04:49:42;;;;;;;4.75;1.50;;;9.80;99.90;;;9.04;100.00;100055.06;4139256;28;20030;-72
2023/10/23 04:51:43;;;;;;;2.75;1.55;;;9.90;99.90;;;9.07;100.00;100058.19;4139195;28;20032;-72
2023/10/23 04:53:44;;;;;;;4.75;1.80;;;9.80;99.90;;;9.06;100.00;100046.00;4138563;28;20022;-72
2023/10/23 04:55:44;;;;;;;6.80;1.95;;;9.90;99.90;;;9.03;100.00;100046.34;4161523;28;20014;-72
2023/10/23 04:57:45;;;;;;;5.18;1.70;;;9.80;99.90;;;9.05;100.00;100046.19;4152849;28;20026;-72
2023/10/23 04:59:46;;;;;;;10.80;1.90;;;9.90;99.90;;;9.07;100.00;100045.03;4148925;28;20022;-72
2023/10/23 05:01:49;;;;;;;7.32;1.80;;;9.80;99.90;;;9.07;100.00;100046.84;4169167;28;20652;-72
2023/10/23 05:03:50;;;;;;;9.48;2.38;;;9.90;99.90;;;9.07;100.00;100037.16;4169024;28;20032;-72
2023/10/23 05:05:51;;;;;;;6.32;2.05;;;9.80;99.90;;;9.07;100.00;100041.59;4169083;28;20405;-72
2023/10/23 05:07:52;;;;;;;8.95;2.40;;;9.90;99.90;;;9.08;100.00;100037.97;4151618;28;20076;-72
2023/10/23 05:09:53;;;;;;;5.75;1.77;;;9.90;99.90;;;9.08;100.00;100044.03;4168268;28;20044;-72
2023/10/23 05:11:53;;;;;;;6.70;2.10;;;9.90;99.90;;;9.09;100.00;100029.06;4167445;28;20041;-72
2023/10/23 05:13:54;;;;;;;13.48;2.80;;;9.90;99.90;;;9.08;100.00;100036.13;4168878;28;20481;-72
2023/10/23 05:16:05;;;;;;;6.22;2.30;;;9.80;99.90;;;9.07;100.00;100033.69;4168783;28;20492;-72
2023/10/23 05:18:07;;;;;;;5.78;1.80;;;9.80;99.90;;;9.08;100.00;100032.72;4151547;28;20392;-72
2023/10/23 05:20:09;;;;;;;4.60;1.83;;;9.80;99.90;;;9.05;100.00;100022.53;4162165;28;20443;-72
2023/10/23 05:22:10;;;;;;;9.50;1.73;;;9.90;99.90;;;9.07;100.00;100023.16;4134925;28;20033;-72
2023/10/23 05:24:10;;;;;;;9.82;2.10;;;9.90;99.90;;;9.09;100.00;100029.91;4151206;28;20027;-72
2023/10/23 05:26:11;;;;;;;5.55;1.75;;;9.90;99.90;;;9.09;100.00;100019.38;4152455;28;20030;-72
2023/10/23 05:28:12;;;;;;;6.05;2.00;;;9.90;99.90;;;9.10;100.00;100022.84;4152446;28;20049;-72
2023/10/23 05:30:13;;;;;;;3.92;1.83;;;9.90;99.90;;;9.12;100.00;100018.22;4134962;28;20038;-72
2023/10/23 05:32:14;;;;;;;8.10;1.73;;;9.90;99.90;;;9.13;100.00;100020.72;4161867;28;20026;-72
2023/10/23 05:34:15;;;;;;;3.10;1.40;;;9.90;99.90;;;9.14;100.00;100014.44;4155386;28;20033;-72
2023/10/23 05:36:15;;;;;;;3.25;1.63;;;9.90;99.90;;;9.15;100.00;100010.84;4168751;28;20037;-72
2023/10/23 05:38:16;;;;;;;5.78;2.00;;;9.90;99.90;;;9.17;100.00;100010.69;4168746;28;20018;-72
2023/10/23 05:40:17;;;;;;;5.68;2.17;;;9.90;99.90;;;9.17;100.00;100008.06;4150678;28;20029;-72
2023/10/23 05:42:18;;;;;;;8.45;2.42;;;10.00;99.90;;;9.19;100.00;100006.06;4168491;28;20048;-72
2023/10/23 05:44:19;;;;;;;4.97;2.10;;;10.00;99.90;;;9.21;100.00;99996.19;4168678;28;20030;-72
2023/10/23 05:46:20;;;;;;;4.95;1.80;;;10.00;99.90;;;9.22;100.00;99989.94;4168623;28;20501;-72
2023/10/23 05:48:22;;;;;;;6.72;1.88;;;10.00;99.90;;;9.22;100.00;99987.31;4168556;28;20091;-72
2023/10/23 05:50:23;;;;;;;6.80;2.17;;;10.00;99.90;;;9.21;100.00;99996.19;4165918;28;20034;-72
2023/10/23 05:52:24;;;;;;;5.85;2.47;;;10.00;99.90;;;9.21;100.00;99988.28;4152261;28;20092;-72
2023/10/23 05:54:25;;;;;;;9.27;2.35;;;10.00;99.90;;;9.22;100.00;99987.31;4160943;28;20029;-72
2023/10/23 05:56:26;;;;;;;7.75;2.30;;;10.00;99.90;;;9.22;100.00;99982.06;4156173;28;20021;-72
2023/10/23 05:58:27;;;;;;;6.30;2.05;;;10.00;99.90;;;9.24;100.00;99985.34;4137226;28;20109;-72
2023/10/23 06:00:27;;;;;;;6.00;1.80;;;10.00;99.90;;;9.21;100.00;99972.50;4163123;28;20025;-72
2023/10/23 06:02:29;;;;;;;5.45;1.60;;;10.00;99.90;;;9.23;100.00;99984.50;4152169;28;20022;-72
2023/10/23 06:04:30;;;;;;;6.45;1.70;;;10.00;99.90;;;9.23;100.00;99988.94;4152103;28;20033;-72
2023/10/23 06:06:31;;;;;;;6.20;1.60;;;10.00;99.90;;;9.21;100.00;99981.22;4152006;28;20066;-72
2023/10/23 06:08:32;;;;;;;3.92;2.42;;;10.00;99.90;;;9.19;100.00;99977.94;4134785;28;20583;-72
2023/10/23 06:10:43;;;;;;;5.50;2.10;;;10.00;99.90;;;9.21;100.00;99983.03;4155176;28;20489;-72
2023/10/23 06:12:44;;;;;;;9.80;2.03;;;10.00;99.90;;;9.17;100.00;99974.63;4151918;28;20644;-72
2023/10/23 06:14:45;;;;;;;3.92;1.73;;;10.00;99.90;;;9.17;100.00;99976.47;4152092;28;20034;-72
2023/10/23 06:16:46;;;;;;;4.53;2.03;;;9.90;99.90;;;9.16;100.00;99973.03;4152105;28;20041;-72
2023/10/23 06:18:47;;;;;;;4.53;1.63;;;10.00;99.90;;;9.17;100.00;99969.38;4138678;28;20029;-72
2023/10/23 06:21:03;;;;;;;6.47;1.70;;;10.00;99.90;;;9.19;100.00;99975.31;4167015;28;20030;-72
2023/10/23 06:23:04;;;;;;;4.90;2.05;;;10.00;99.90;;;9.17;100.00;99974.63;4167144;28;20109;-72
2023/10/23 06:25:05;;;;;;;3.78;1.60;;;10.00;99.90;;;9.18;100.00;99959.69;4154949;28;20417;-72
2023/10/23 06:27:06;;;;;;;6.50;2.30;;;10.00;99.90;;;9.20;100.00;99969.06;4137704;28;20085;-72
2023/10/23 06:29:06;;;;;;;10.93;2.20;;;10.00;99.90;;;9.23;100.00;99962.63;4154953;28;20030;-72
2023/10/23 06:31:09;;;;;;;7.15;3.17;;;10.00;99.90;;;9.25;100.00;99958.03;4164276;28;20029;-72
2023/10/23 06:33:10;;;;;;;8.88;2.40;;;10.00;99.90;;;9.27;100.00;99961.31;4155013;28;20029;-72
2023/10/23 06:35:11;;;;;;;8.48;1.92;;;10.00;99.90;;;9.26;100.00;99957.84;4154995;28;20033;-72
2023/10/23 06:37:12;;;;;;;10.18;2.80;;;10.00;99.90;;;9.30;100.00;99958.34;4154842;28;20024;-72
2023/10/23 06:39:13;;;;;;;9.38;2.20;;;10.00;99.90;;;9.29;100.00;99957.53;4154995;28;20445;-72
2023/10/23 06:41:14;;;;;;;7.60;2.40;;;10.10;99.90;;;9.29;100.00;99948.81;4161693;28;20037;-72
2023/10/23 06:43:15;;;;;;;5.97;2.30;;;10.10;99.90;;;9.30;100.00;99953.91;4137185;28;20022;-72
2023/10/23 06:45:15;;;;;;;6.68;2.25;;;10.10;99.90;;;9.29;100.00;99944.38;4154629;28;20030;-72
2023/10/23 06:47:16;;;;;;;4.88;1.95;;;10.10;99.90;;;9.30;100.00;99946.03;4154763;28;20030;-72
2023/10/23 06:49:17;;;;;;;8.38;1.85;;;10.10;99.90;;;9.32;100.00;99943.22;4154758;28;20036;-72
2023/10/23 06:51:18;;;;;;;8.13;2.42;;;10.10;99.90;;;9.29;100.00;99940.91;4159619;28;20037;-72
2023/10/23 06:53:19;;;;;;;7.32;2.42;;;10.10;99.90;;;9.30;100.00;99946.03;4137255;28;20039;-72
2023/10/23 06:55:20;;;;;;;6.38;2.30;;;10.10;99.90;;;9.33;100.00;99943.06;4167579;28;20030;-72
2023/10/23 06:57:20;;;;;;;7.78;2.47;;;10.10;99.90;;;9.39;100.00;99958.19;4137264;28;20026;-72
2023/10/23 06:59:21;;;;;;;7.93;2.40;;;10.20;99.90;;;9.42;100.00;99943.84;4137909;28;20019;-72
2023/10/23 07:01:22;;;;;;;7.70;2.22;;;10.10;99.90;;;9.46;100.00;99953.06;4151811;28;20029;-72
2023/10/23 07:03:23;;;;;;;16.95;2.97;;;10.20;99.90;;;9.47;100.00;99953.91;4170906;28;20018;-72
2023/10/23 07:05:24;;;;;;;11.60;2.47;;;10.20;99.90;;;9.46;100.00;99950.44;4153362;28;20041;-72
2023/10/23 07:07:25;;;;;;;8.25;2.47;;;10.20;99.90;;;9.49;100.00;99947.47;4153670;28;20037;-72
2023/10/23 07:09:25;;;;;;;5.78;2.08;;;10.20;99.90;;;9.51;100.00;99950.75;4170924;28;20036;-72
2023/10/23 07:11:26;;;;;;;8.68;2.20;;;10.30;99.90;;;9.51;100.00;99945.47;4168044;28;20049;-72
2023/10/23 07:13:27;;;;;;;11.25;2.20;;;10.30;99.90;;;9.55;100.00;99951.25;4137062;28;20026;-72
2023/10/23 07:15:32;;;;;;;9.15;2.17;;;10.30;99.90;;;9.55;100.00;99946.81;4154161;28;20037;-72
2023/10/23 07:17:34;;;;;;;9.52;2.17;;;10.30;99.90;;;9.58;100.00;99953.53;4154298;28;20089;-72
2023/10/23 07:19:34;;;;;;;7.32;2.53;;;10.40;99.90;;;9.59;100.00;99948.09;4162190;28;20480;-72
2023/10/23 07:21:35;;;;;;;7.65;2.40;;;10.40;99.90;;;9.65;100.00;99955.31;4152954;28;20033;-72
2023/10/23 07:23:36;;;;;;;6.63;2.05;;;10.40;99.90;;;9.65;100.00;99951.84;4170605;28;20025;-72
2023/10/23 07:25:37;;;;;;;4.95;1.83;;;10.40;99.90;;;9.68;100.00;99952.34;4169803;28;20056;-72
2023/10/23 07:27:40;;;;;;;6.45;2.35;;;10.40;99.90;;;9.72;100.00;99953.66;4154969;28;20076;-72
2023/10/23 07:29:44;;;;;;;9.73;1.85;;;10.50;99.90;;;9.73;100.00;99952.66;4154831;28;20037;-72
2023/10/23 07:31:45;;;;;;;5.75;2.28;;;10.50;99.90;;;9.82;100.00;99962.19;4143250;28;20042;-72
2023/10/23 07:33:46;;;;;;;4.22;1.63;;;10.50;99.90;;;9.85;100.00;99966.28;4153905;28;20477;-72
2023/10/23 07:35:47;;;;;;;9.80;2.53;;;10.60;99.90;;;9.86;100.00;99963.47;4153911;28;20026;-72
2023/10/23 07:37:47;;;;;;;5.85;1.95;;;10.60;99.90;;;9.89;100.00;99957.88;4153998;28;20044;-72
2023/10/23 07:39:49;;;;;;;3.50;1.65;;;10.60;99.90;;;9.92;100.00;99957.53;4155073;28;20026;-72
2023/10/23 07:41:50;;;;;;;6.50;1.55;;;10.60;99.90;;;9.97;100.00;99957.81;4158215;28;20441;-72
2023/10/23 07:43:50;;;;;;;4.18;1.63;;;10.60;99.90;;;10.02;100.00;99957.31;4153858;28;20033;-72
2023/10/23 07:45:51;;;;;;;6.38;1.85;;;10.70;99.90;;;10.09;100.00;99960.09;4153856;28;20533;-72
2023/10/23 07:47:52;;;;;;;7.63;1.60;;;10.70;99.90;;;10.14;100.00;99957.78;4154033;28;20397;-72
2023/10/23 07:49:53;;;;;;;5.72;2.20;;;10.80;99.90;;;10.17;100.00;99963.53;4138238;28;20030;-72
2023/10/23 07:51:54;;;;;;;4.03;1.90;;;10.90;99.90;;;10.22;100.00;99963.00;4155025;28;20018;-72
2023/10/23 07:53:55;;;;;;;6.47;2.28;;;10.90;99.90;;;10.30;100.00;99968.25;4158218;28;20025;-72
2023/10/23 07:55:55;;;;;;;5.35;2.10;;;10.90;99.90;;;10.35;100.00;99965.91;4162181;28;20084;-72
2023/10/23 07:57:56;;;;;;;8.00;2.97;;;11.00;99.90;;;10.35;100.00;99971.19;4153813;28;20030;-72
2023/10/23 07:59:57;;;;;;;5.78;2.20;;;11.00;99.90;;;10.38;100.00;99965.56;4151213;28;20026;-72
2023/10/23 08:01:58;;;;;;;6.63;2.67;;;11.00;99.90;;;10.41;100.00;99965.22;4170222;28;20021;-72
2023/10/23 08:03:59;;;;;;;8.90;2.53;;;11.10;99.90;;;10.39;100.00;99973.28;4152636;28;20437;-72
2023/10/23 08:06:03;;;;;;;6.93;2.20;;;11.10;99.90;;;10.40;100.00;99974.13;4169440;28;20025;-72
2023/10/23 08:08:04;;;;;;;8.15;2.80;;;11.10;99.90;;;10.42;100.00;99972.94;4138306;28;20023;-72
2023/10/23 08:10:05;;;;;;;7.28;2.97;;;11.10;99.90;;;10.45;100.00;99972.59;4156513;28;20549;-72
2023/10/23 08:12:07;;;;;;;8.27;2.53;;;11.10;99.90;;;10.46;100.00;99973.44;4169369;28;20413;-72
2023/10/23 08:14:08;;;;;;;5.28;1.98;;;11.10;99.90;;;10.54;100.00;99960.22;4142196;28;20034;-72
2023/10/23 08:16:09;;;;;;;6.03;2.03;;;11.20;99.90;;;10.60;100.00;99964.78;4153314;28;20053;-72
2023/10/23 08:18:10;;;;;;;5.95;3.10;;;11.20;99.90;;;10.63;100.00;99967.09;4153640;28;20037;-73
2023/10/23 08:20:11;;;;;;;7.00;2.42;;;11.30;99.90;;;10.69;100.00;99969.00;4165741;28;20029;-72
2023/10/23 08:22:12;;;;;;;5.68;2.80;;;11.30;99.90;;;10.75;100.00;99978.84;4142837;28;20053;-73
2023/10/23 08:24:13;;;;;;;4.28;2.25;;;11.40;99.90;;;10.76;100.00;99975.22;4165767;28;20029;-73
2023/10/23 08:26:14;;;;;;;6.82;2.25;;;11.40;99.90;;;10.76;100.00;99972.56;4135150;28;20027;-73
2023/10/23 08:28:15;;;;;;;9.10;2.80;;;11.40;99.90;;;10.80;100.00;99970.41;4158695;28;20048;-73